sensor_id;sensor_type;location;lat;lon;timestamp;P1;durP1;ratioP1;P2;durP2;ratioP2
4867;SDS011;2448;48.086;10.862;2024-03-22T00:01:45;0.50;;;0.50;;
4867;SDS011;2448;48.086;10.862;2024-03-22T00:04:11;0.50;;;0.50;;
4867;SDS011;2448;48.086;10.862;2024-03-22T00:06:36;0.50;;;0.50;;
4867;SDS011;2448;48.086;10.862;2024-03-22T00:09:02;0.50;;;0.50;;
4867;SDS011;2448;48.086;10.862;2024-03-22T00:11:27;0.50;;;0.50;;
4867;SDS011;2448;48.086;10.862;2024-03-22T00:13:52;0.50;;;0.50;;
4867;SDS011;2448;48.086;10.862;2024-03-22T00:16:18;0.50;;;0.50;;
4867;SDS011;2448;48.086;10.862;2024-03-22T00:18:43;0.50;;;0.50;;
4867;SDS011;2448;48.086;10.862;2024-03-22T00:21:08;0.50;;;0.50;;
4867;SDS011;2448;48.086;10.862;2024-03-22T00:23:34;0.50;;;0.50;;
4867;SDS011;2448;48.086;10.862;2024-03-22T00:25:59;0.50;;;0.50;;
4867;SDS011;2448;48.086;10.862;2024-03-22T00:28:24;0.50;;;0.50;;
4867;SDS011;2448;48.086;10.862;2024-03-22T00:30:50;0.50;;;0.50;;
4867;SDS011;2448;48.086;10.862;2024-03-22T00:33:15;0.50;;;0.50;;
4867;SDS011;2448;48.086;10.862;2024-03-22T00:35:40;0.50;;;0.50;;
4867;SDS011;2448;48.086;10.862;2024-03-22T00:38:06;0.50;;;0.50;;
4867;SDS011;2448;48.086;10.862;2024-03-22T00:40:31;0.50;;;0.50;;
4867;SDS011;2448;48.086;10.862;2024-03-22T00:42:56;0.60;;;0.60;;
4867;SDS011;2448;48.086;10.862;2024-03-22T00:45:22;0.50;;;0.50;;
4867;SDS011;2448;48.086;10.862;2024-03-22T00:47:47;0.50;;;0.50;;
4867;SDS011;2448;48.086;10.862;2024-03-22T00:50:13;0.50;;;0.50;;
4867;SDS011;2448;48.086;10.862;2024-03-22T00:52:38;0.50;;;0.50;;
4867;SDS011;2448;48.086;10.862;2024-03-22T00:55:04;0.50;;;0.50;;
4867;SDS011;2448;48.086;10.862;2024-03-22T00:57:30;0.50;;;0.50;;
4867;SDS011;2448;48.086;10.862;2024-03-22T00:59:55;0.50;;;0.50;;
4867;SDS011;2448;48.086;10.862;2024-03-22T01:02:21;0.50;;;0.50;;
4867;SDS011;2448;48.086;10.862;2024-03-22T01:04:47;0.50;;;0.50;;
4867;SDS011;2448;48.086;10.862;2024-03-22T01:07:13;0.50;;;0.50;;
4867;SDS011;2448;48.086;10.862;2024-03-22T01:09:38;0.50;;;0.50;;
4867;SDS011;2448;48.086;10.862;2024-03-22T01:12:04;0.50;;;0.50;;
4867;SDS011;2448;48.086;10.862;2024-03-22T01:14:30;0.50;;;0.50;;
4867;SDS011;2448;48.086;10.862;2024-03-22T01:16:55;0.60;;;0.60;;
4867;SDS011;2448;48.086;10.862;2024-03-22T01:19:21;0.57;;;0.57;;
4867;SDS011;2448;48.086;10.862;2024-03-22T01:21:48;0.50;;;0.50;;
4867;SDS011;2448;48.086;10.862;2024-03-22T01:24:13;0.50;;;0.50;;
4867;SDS011;2448;48.086;10.862;2024-03-22T01:26:38;0.50;;;0.50;;
4867;SDS011;2448;48.086;10.862;2024-03-22T01:29:04;0.50;;;0.50;;
4867;SDS011;2448;48.086;10.862;2024-03-22T01:31:29;0.50;;;0.50;;
4867;SDS011;2448;48.086;10.862;2024-03-22T01:33:54;0.50;;;0.50;;
4867;SDS011;2448;48.086;10.862;2024-03-22T01:36:20;0.50;;;0.50;;
4867;SDS011;2448;48.086;10.862;2024-03-22T01:38:45;0.40;;;0.40;;
4867;SDS011;2448;48.086;10.862;2024-03-22T01:41:11;0.50;;;0.50;;
4867;SDS011;2448;48.086;10.862;2024-03-22T01:43:36;0.50;;;0.50;;
4867;SDS011;2448;48.086;10.862;2024-03-22T01:46:01;0.50;;;0.50;;
4867;SDS011;2448;48.086;10.862;2024-03-22T01:48:27;0.50;;;0.50;;
4867;SDS011;2448;48.086;10.862;2024-03-22T01:50:52;0.50;;;0.50;;
4867;SDS011;2448;48.086;10.862;2024-03-22T01:53:19;0.50;;;0.50;;
4867;SDS011;2448;48.086;10.862;2024-03-22T01:55:44;0.50;;;0.50;;
4867;SDS011;2448;48.086;10.862;2024-03-22T01:58:09;0.50;;;0.50;;
4867;SDS011;2448;48.086;10.862;2024-03-22T02:00:35;0.50;;;0.50;;
4867;SDS011;2448;48.086;10.862;2024-03-22T02:03:01;0.50;;;0.50;;
4867;SDS011;2448;48.086;10.862;2024-03-22T02:05:26;0.50;;;0.50;;
4867;SDS011;2448;48.086;10.862;2024-03-22T02:07:51;0.50;;;0.50;;
4867;SDS011;2448;48.086;10.862;2024-03-22T02:10:17;0.50;;;0.50;;
4867;SDS011;2448;48.086;10.862;2024-03-22T02:12:42;0.50;;;0.50;;
4867;SDS011;2448;48.086;10.862;2024-03-22T02:15:08;0.50;;;0.50;;
4867;SDS011;2448;48.086;10.862;2024-03-22T02:17:33;0.50;;;0.50;;
4867;SDS011;2448;48.086;10.862;2024-03-22T02:19:59;0.47;;;0.47;;
4867;SDS011;2448;48.086;10.862;2024-03-22T02:22:25;0.50;;;0.50;;
4867;SDS011;2448;48.086;10.862;2024-03-22T02:24:51;0.50;;;0.50;;
4867;SDS011;2448;48.086;10.862;2024-03-22T02:27:16;0.50;;;0.50;;
4867;SDS011;2448;48.086;10.862;2024-03-22T02:29:41;0.50;;;0.50;;
4867;SDS011;2448;48.086;10.862;2024-03-22T02:32:07;0.50;;;0.50;;
4867;SDS011;2448;48.086;10.862;2024-03-22T02:34:32;0.50;;;0.50;;
4867;SDS011;2448;48.086;10.862;2024-03-22T02:36:57;0.50;;;0.50;;
4867;SDS011;2448;48.086;10.862;2024-03-22T02:39:23;0.50;;;0.50;;
4867;SDS011;2448;48.086;10.862;2024-03-22T02:41:50;0.50;;;0.50;;
4867;SDS011;2448;48.086;10.862;2024-03-22T02:44:15;0.50;;;0.50;;
4867;SDS011;2448;48.086;10.862;2024-03-22T02:46:41;0.50;;;0.50;;
4867;SDS011;2448;48.086;10.862;2024-03-22T02:49:06;0.50;;;0.50;;
4867;SDS011;2448;48.086;10.862;2024-03-22T02:51:31;0.50;;;0.50;;
4867;SDS011;2448;48.086;10.862;2024-03-22T02:53:57;0.50;;;0.50;;
4867;SDS011;2448;48.086;10.862;2024-03-22T02:56:22;0.50;;;0.50;;
4867;SDS011;2448;48.086;10.862;2024-03-22T02:58:48;0.50;;;0.50;;
4867;SDS011;2448;48.086;10.862;2024-03-22T03:01:14;0.50;;;0.50;;
4867;SDS011;2448;48.086;10.862;2024-03-22T03:03:39;0.50;;;0.50;;
4867;SDS011;2448;48.086;10.862;2024-03-22T03:06:05;0.50;;;0.50;;
4867;SDS011;2448;48.086;10.862;2024-03-22T03:08:30;0.50;;;0.50;;
4867;SDS011;2448;48.086;10.862;2024-03-22T03:10:56;0.50;;;0.50;;
4867;SDS011;2448;48.086;10.862;2024-03-22T03:13:21;0.50;;;0.50;;
4867;SDS011;2448;48.086;10.862;2024-03-22T03:15:47;0.50;;;0.50;;
4867;SDS011;2448;48.086;10.862;2024-03-22T03:18:12;0.50;;;0.50;;
4867;SDS011;2448;48.086;10.862;2024-03-22T03:20:37;0.50;;;0.50;;
4867;SDS011;2448;48.086;10.862;2024-03-22T03:23:03;0.50;;;0.50;;
4867;SDS011;2448;48.086;10.862;2024-03-22T03:25:28;0.50;;;0.50;;
4867;SDS011;2448;48.086;10.862;2024-03-22T03:27:54;0.50;;;0.50;;
4867;SDS011;2448;48.086;10.862;2024-03-22T03:30:19;0.50;;;0.50;;
4867;SDS011;2448;48.086;10.862;2024-03-22T03:32:44;0.50;;;0.50;;
4867;SDS011;2448;48.086;10.862;2024-03-22T03:35:10;0.50;;;0.50;;
4867;SDS011;2448;48.086;10.862;2024-03-22T03:37:35;0.50;;;0.50;;
4867;SDS011;2448;48.086;10.862;2024-03-22T03:40:00;0.50;;;0.50;;
4867;SDS011;2448;48.086;10.862;2024-03-22T03:42:26;0.50;;;0.50;;
4867;SDS011;2448;48.086;10.862;2024-03-22T03:44:51;0.50;;;0.50;;
4867;SDS011;2448;48.086;10.862;2024-03-22T03:47:17;0.50;;;0.50;;
4867;SDS011;2448;48.086;10.862;2024-03-22T03:49:42;0.50;;;0.50;;
4867;SDS011;2448;48.086;10.862;2024-03-22T03:52:09;0.50;;;0.50;;
4867;SDS011;2448;48.086;10.862;2024-03-22T03:54:35;0.50;;;0.50;;
4867;SDS011;2448;48.086;10.862;2024-03-22T03:57:00;0.50;;;0.50;;
4867;SDS011;2448;48.086;10.862;2024-03-22T03:59:26;0.60;;;0.60;;
4867;SDS011;2448;48.086;10.862;2024-03-22T04:01:51;0.50;;;0.50;;
4867;SDS011;2448;48.086;10.862;2024-03-22T04:04:16;0.50;;;0.50;;
4867;SDS011;2448;48.086;10.862;2024-03-22T04:06:43;0.50;;;0.50;;
4867;SDS011;2448;48.086;10.862;2024-03-22T04:09:09;0.50;;;0.50;;
4867;SDS011;2448;48.086;10.862;2024-03-22T04:11:35;0.50;;;0.50;;
4867;SDS011;2448;48.086;10.862;2024-03-22T04:14:00;0.50;;;0.50;;
4867;SDS011;2448;48.086;10.862;2024-03-22T04:16:25;0.50;;;0.50;;
4867;SDS011;2448;48.086;10.862;2024-03-22T04:18:51;0.50;;;0.50;;
4867;SDS011;2448;48.086;10.862;2024-03-22T04:21:17;0.50;;;0.50;;
4867;SDS011;2448;48.086;10.862;2024-03-22T04:23:42;0.50;;;0.50;;
4867;SDS011;2448;48.086;10.862;2024-03-22T04:26:08;0.50;;;0.50;;
4867;SDS011;2448;48.086;10.862;2024-03-22T04:28:33;0.50;;;0.50;;
4867;SDS011;2448;48.086;10.862;2024-03-22T04:33:24;0.50;;;0.50;;
4867;SDS011;2448;48.086;10.862;2024-03-22T04:35:49;0.50;;;0.50;;
4867;SDS011;2448;48.086;10.862;2024-03-22T04:38:15;0.50;;;0.50;;
4867;SDS011;2448;48.086;10.862;2024-03-22T04:40:40;0.50;;;0.50;;
4867;SDS011;2448;48.086;10.862;2024-03-22T04:43:06;0.57;;;0.57;;
4867;SDS011;2448;48.086;10.862;2024-03-22T04:45:31;0.50;;;0.50;;
4867;SDS011;2448;48.086;10.862;2024-03-22T04:47:57;0.50;;;0.50;;
4867;SDS011;2448;48.086;10.862;2024-03-22T04:50:22;0.50;;;0.50;;
4867;SDS011;2448;48.086;10.862;2024-03-22T04:52:47;0.50;;;0.50;;
4867;SDS011;2448;48.086;10.862;2024-03-22T04:55:13;0.50;;;0.50;;
4867;SDS011;2448;48.086;10.862;2024-03-22T04:57:38;0.50;;;0.50;;
4867;SDS011;2448;48.086;10.862;2024-03-22T05:00:03;0.50;;;0.50;;
4867;SDS011;2448;48.086;10.862;2024-03-22T05:02:30;0.60;;;0.60;;
4867;SDS011;2448;48.086;10.862;2024-03-22T05:04:55;0.50;;;0.50;;
4867;SDS011;2448;48.086;10.862;2024-03-22T05:07:20;0.50;;;0.50;;
4867;SDS011;2448;48.086;10.862;2024-03-22T05:09:46;0.50;;;0.50;;
4867;SDS011;2448;48.086;10.862;2024-03-22T05:12:11;0.50;;;0.50;;
4867;SDS011;2448;48.086;10.862;2024-03-22T05:14:37;0.50;;;0.50;;
4867;SDS011;2448;48.086;10.862;2024-03-22T05:17:02;0.50;;;0.50;;
4867;SDS011;2448;48.086;10.862;2024-03-22T05:19:27;0.50;;;0.50;;
4867;SDS011;2448;48.086;10.862;2024-03-22T05:21:53;0.50;;;0.50;;
4867;SDS011;2448;48.086;10.862;2024-03-22T05:24:18;0.50;;;0.50;;
4867;SDS011;2448;48.086;10.862;2024-03-22T05:26:43;0.50;;;0.50;;
4867;SDS011;2448;48.086;10.862;2024-03-22T05:29:09;0.50;;;0.50;;
4867;SDS011;2448;48.086;10.862;2024-03-22T05:31:36;0.50;;;0.50;;
4867;SDS011;2448;48.086;10.862;2024-03-22T05:34:10;0.50;;;0.50;;
4867;SDS011;2448;48.086;10.862;2024-03-22T05:36:35;0.57;;;0.57;;
4867;SDS011;2448;48.086;10.862;2024-03-22T05:39:01;0.50;;;0.50;;
4867;SDS011;2448;48.086;10.862;2024-03-22T05:41:26;0.50;;;0.50;;
4867;SDS011;2448;48.086;10.862;2024-03-22T05:43:51;0.50;;;0.50;;
4867;SDS011;2448;48.086;10.862;2024-03-22T05:46:17;0.50;;;0.50;;
4867;SDS011;2448;48.086;10.862;2024-03-22T05:48:42;0.50;;;0.50;;
4867;SDS011;2448;48.086;10.862;2024-03-22T05:51:07;0.50;;;0.50;;
4867;SDS011;2448;48.086;10.862;2024-03-22T05:53:33;0.50;;;0.50;;
4867;SDS011;2448;48.086;10.862;2024-03-22T05:55:58;0.50;;;0.50;;
4867;SDS011;2448;48.086;10.862;2024-03-22T05:58:23;0.50;;;0.50;;
4867;SDS011;2448;48.086;10.862;2024-03-22T06:00:49;0.50;;;0.50;;
4867;SDS011;2448;48.086;10.862;2024-03-22T06:03:14;0.40;;;0.40;;
4867;SDS011;2448;48.086;10.862;2024-03-22T06:05:40;0.50;;;0.50;;
4867;SDS011;2448;48.086;10.862;2024-03-22T06:08:05;0.50;;;0.50;;
4867;SDS011;2448;48.086;10.862;2024-03-22T06:10:31;0.50;;;0.50;;
4867;SDS011;2448;48.086;10.862;2024-03-22T06:12:57;0.50;;;0.50;;
4867;SDS011;2448;48.086;10.862;2024-03-22T06:15:22;0.50;;;0.50;;
4867;SDS011;2448;48.086;10.862;2024-03-22T06:17:47;0.50;;;0.50;;
4867;SDS011;2448;48.086;10.862;2024-03-22T06:20:13;0.50;;;0.50;;
4867;SDS011;2448;48.086;10.862;2024-03-22T06:22:39;0.50;;;0.50;;
4867;SDS011;2448;48.086;10.862;2024-03-22T06:25:04;0.50;;;0.50;;
4867;SDS011;2448;48.086;10.862;2024-03-22T06:27:29;0.50;;;0.50;;
4867;SDS011;2448;48.086;10.862;2024-03-22T06:29:55;0.50;;;0.50;;
4867;SDS011;2448;48.086;10.862;2024-03-22T06:32:20;0.50;;;0.50;;
4867;SDS011;2448;48.086;10.862;2024-03-22T06:34:45;0.40;;;0.40;;
4867;SDS011;2448;48.086;10.862;2024-03-22T06:37:13;0.50;;;0.50;;
4867;SDS011;2448;48.086;10.862;2024-03-22T06:39:38;0.47;;;0.47;;
4867;SDS011;2448;48.086;10.862;2024-03-22T06:42:04;0.50;;;0.50;;
4867;SDS011;2448;48.086;10.862;2024-03-22T06:44:29;0.50;;;0.50;;
4867;SDS011;2448;48.086;10.862;2024-03-22T06:46:54;0.50;;;0.50;;
4867;SDS011;2448;48.086;10.862;2024-03-22T06:49:20;0.50;;;0.50;;
4867;SDS011;2448;48.086;10.862;2024-03-22T06:51:45;0.47;;;0.47;;
4867;SDS011;2448;48.086;10.862;2024-03-22T06:54:10;7.70;;;4.40;;
4867;SDS011;2448;48.086;10.862;2024-03-22T06:56:36;4.80;;;3.80;;
4867;SDS011;2448;48.086;10.862;2024-03-22T06:59:01;4.97;;;3.90;;
4867;SDS011;2448;48.086;10.862;2024-03-22T07:01:26;6.20;;;3.80;;
4867;SDS011;2448;48.086;10.862;2024-03-22T07:03:52;7.90;;;4.10;;
4867;SDS011;2448;48.086;10.862;2024-03-22T07:06:18;6.13;;;4.40;;
4867;SDS011;2448;48.086;10.862;2024-03-22T07:08:43;6.57;;;4.17;;
4867;SDS011;2448;48.086;10.862;2024-03-22T07:11:09;7.40;;;5.07;;
4867;SDS011;2448;48.086;10.862;2024-03-22T07:13:34;6.90;;;4.63;;
4867;SDS011;2448;48.086;10.862;2024-03-22T07:16:00;12.33;;;4.60;;
4867;SDS011;2448;48.086;10.862;2024-03-22T07:18:26;7.47;;;5.00;;
4867;SDS011;2448;48.086;10.862;2024-03-22T07:20:51;5.30;;;4.47;;
4867;SDS011;2448;48.086;10.862;2024-03-22T07:23:17;10.10;;;4.43;;
4867;SDS011;2448;48.086;10.862;2024-03-22T07:25:42;8.80;;;5.27;;
4867;SDS011;2448;48.086;10.862;2024-03-22T07:28:11;5.87;;;4.70;;
4867;SDS011;2448;48.086;10.862;2024-03-22T07:30:36;7.20;;;4.87;;
4867;SDS011;2448;48.086;10.862;2024-03-22T07:33:02;10.90;;;5.13;;
4867;SDS011;2448;48.086;10.862;2024-03-22T07:35:28;5.70;;;4.40;;
4867;SDS011;2448;48.086;10.862;2024-03-22T07:37:53;7.10;;;4.97;;
4867;SDS011;2448;48.086;10.862;2024-03-22T07:40:18;13.43;;;4.13;;
4867;SDS011;2448;48.086;10.862;2024-03-22T07:42:45;7.10;;;4.90;;
4867;SDS011;2448;48.086;10.862;2024-03-22T07:45:10;9.53;;;5.03;;
4867;SDS011;2448;48.086;10.862;2024-03-22T07:47:36;4.70;;;4.20;;
4867;SDS011;2448;48.086;10.862;2024-03-22T07:50:02;3.97;;;3.50;;
4867;SDS011;2448;48.086;10.862;2024-03-22T07:52:28;5.97;;;4.23;;
4867;SDS011;2448;48.086;10.862;2024-03-22T07:54:53;4.30;;;3.90;;
4867;SDS011;2448;48.086;10.862;2024-03-22T07:57:18;4.73;;;3.90;;
4867;SDS011;2448;48.086;10.862;2024-03-22T07:59:45;4.87;;;4.37;;
4867;SDS011;2448;48.086;10.862;2024-03-22T08:02:11;6.73;;;3.90;;
4867;SDS011;2448;48.086;10.862;2024-03-22T08:04:36;5.70;;;3.80;;
4867;SDS011;2448;48.086;10.862;2024-03-22T08:07:01;3.63;;;3.30;;
4867;SDS011;2448;48.086;10.862;2024-03-22T08:09:52;3.70;;;3.40;;
4867;SDS011;2448;48.086;10.862;2024-03-22T08:12:42;3.57;;;2.83;;
4867;SDS011;2448;48.086;10.862;2024-03-22T08:15:08;2.80;;;2.60;;
4867;SDS011;2448;48.086;10.862;2024-03-22T08:17:33;5.67;;;3.70;;
4867;SDS011;2448;48.086;10.862;2024-03-22T08:19:59;3.37;;;2.93;;
4867;SDS011;2448;48.086;10.862;2024-03-22T08:22:24;4.07;;;2.80;;
4867;SDS011;2448;48.086;10.862;2024-03-22T08:24:49;2.87;;;2.67;;
4867;SDS011;2448;48.086;10.862;2024-03-22T08:27:15;2.70;;;2.50;;
4867;SDS011;2448;48.086;10.862;2024-03-22T08:29:40;3.20;;;3.00;;
4867;SDS011;2448;48.086;10.862;2024-03-22T08:32:06;7.07;;;3.17;;
4867;SDS011;2448;48.086;10.862;2024-03-22T08:34:31;2.80;;;2.60;;
4867;SDS011;2448;48.086;10.862;2024-03-22T08:36:57;2.97;;;2.40;;
4867;SDS011;2448;48.086;10.862;2024-03-22T08:39:23;2.60;;;2.40;;
4867;SDS011;2448;48.086;10.862;2024-03-22T08:41:49;4.63;;;2.60;;
4867;SDS011;2448;48.086;10.862;2024-03-22T08:44:14;6.97;;;2.80;;
4867;SDS011;2448;48.086;10.862;2024-03-22T08:46:40;2.70;;;2.50;;
4867;SDS011;2448;48.086;10.862;2024-03-22T08:49:05;1.97;;;1.87;;
4867;SDS011;2448;48.086;10.862;2024-03-22T08:51:30;3.53;;;2.50;;
4867;SDS011;2448;48.086;10.862;2024-03-22T08:53:56;7.70;;;2.40;;
4867;SDS011;2448;48.086;10.862;2024-03-22T08:56:21;2.73;;;2.53;;
4867;SDS011;2448;48.086;10.862;2024-03-22T08:58:47;3.17;;;2.87;;
4867;SDS011;2448;48.086;10.862;2024-03-22T09:01:12;2.90;;;2.57;;
4867;SDS011;2448;48.086;10.862;2024-03-22T09:03:38;2.80;;;2.57;;
4867;SDS011;2448;48.086;10.862;2024-03-22T09:06:04;2.90;;;2.70;;
4867;SDS011;2448;48.086;10.862;2024-03-22T09:08:29;2.70;;;2.50;;
4867;SDS011;2448;48.086;10.862;2024-03-22T09:10:55;2.80;;;2.60;;
4867;SDS011;2448;48.086;10.862;2024-03-22T09:13:20;2.70;;;2.50;;
4867;SDS011;2448;48.086;10.862;2024-03-22T09:15:46;2.60;;;2.40;;
4867;SDS011;2448;48.086;10.862;2024-03-22T09:18:11;2.63;;;2.50;;
4867;SDS011;2448;48.086;10.862;2024-03-22T09:20:36;3.53;;;3.23;;
4867;SDS011;2448;48.086;10.862;2024-03-22T09:23:02;2.97;;;2.67;;
4867;SDS011;2448;48.086;10.862;2024-03-22T09:25:27;2.87;;;2.70;;
4867;SDS011;2448;48.086;10.862;2024-03-22T09:27:53;3.00;;;2.70;;
4867;SDS011;2448;48.086;10.862;2024-03-22T09:30:18;3.07;;;2.50;;
4867;SDS011;2448;48.086;10.862;2024-03-22T09:32:44;5.40;;;2.73;;
4867;SDS011;2448;48.086;10.862;2024-03-22T09:35:09;2.80;;;2.60;;
4867;SDS011;2448;48.086;10.862;2024-03-22T09:37:35;3.53;;;2.37;;
4867;SDS011;2448;48.086;10.862;2024-03-22T09:40:01;3.40;;;2.70;;
4867;SDS011;2448;48.086;10.862;2024-03-22T09:42:28;2.43;;;2.33;;
4867;SDS011;2448;48.086;10.862;2024-03-22T09:44:57;3.77;;;3.47;;
4867;SDS011;2448;48.086;10.862;2024-03-22T09:47:22;2.47;;;2.33;;
4867;SDS011;2448;48.086;10.862;2024-03-22T09:49:49;4.10;;;2.23;;
4867;SDS011;2448;48.086;10.862;2024-03-22T09:52:15;2.87;;;2.60;;
4867;SDS011;2448;48.086;10.862;2024-03-22T09:54:44;3.30;;;3.00;;
4867;SDS011;2448;48.086;10.862;2024-03-22T09:57:13;2.77;;;2.57;;
4867;SDS011;2448;48.086;10.862;2024-03-22T09:59:39;4.93;;;2.47;;
4867;SDS011;2448;48.086;10.862;2024-03-22T10:02:05;2.93;;;2.73;;
4867;SDS011;2448;48.086;10.862;2024-03-22T10:04:32;2.63;;;2.43;;
4867;SDS011;2448;48.086;10.862;2024-03-22T10:06:58;4.60;;;2.53;;
4867;SDS011;2448;48.086;10.862;2024-03-22T10:09:29;2.70;;;2.37;;
4867;SDS011;2448;48.086;10.862;2024-03-22T10:11:58;2.43;;;2.30;;
4867;SDS011;2448;48.086;10.862;2024-03-22T10:14:23;2.70;;;2.50;;
4867;SDS011;2448;48.086;10.862;2024-03-22T10:16:52;2.50;;;2.30;;
4867;SDS011;2448;48.086;10.862;2024-03-22T10:19:20;2.80;;;2.57;;
4867;SDS011;2448;48.086;10.862;2024-03-22T10:21:47;2.80;;;2.60;;
4867;SDS011;2448;48.086;10.862;2024-03-22T10:24:12;1.90;;;1.80;;
4867;SDS011;2448;48.086;10.862;2024-03-22T10:26:38;2.20;;;2.10;;
4867;SDS011;2448;48.086;10.862;2024-03-22T10:29:07;3.40;;;3.10;;
4867;SDS011;2448;48.086;10.862;2024-03-22T10:31:34;2.57;;;2.37;;
4867;SDS011;2448;48.086;10.862;2024-03-22T10:33:59;2.50;;;2.30;;
4867;SDS011;2448;48.086;10.862;2024-03-22T10:36:27;2.87;;;2.67;;
4867;SDS011;2448;48.086;10.862;2024-03-22T10:38:52;2.47;;;2.27;;
4867;SDS011;2448;48.086;10.862;2024-03-22T10:41:20;2.30;;;2.20;;
4867;SDS011;2448;48.086;10.862;2024-03-22T10:43:45;2.50;;;2.40;;
4867;SDS011;2448;48.086;10.862;2024-03-22T10:46:12;3.23;;;2.43;;
4867;SDS011;2448;48.086;10.862;2024-03-22T10:48:38;2.37;;;2.27;;
4867;SDS011;2448;48.086;10.862;2024-03-22T10:51:05;4.40;;;2.70;;
4867;SDS011;2448;48.086;10.862;2024-03-22T10:53:31;3.43;;;2.47;;
4867;SDS011;2448;48.086;10.862;2024-03-22T10:55:57;3.03;;;2.80;;
4867;SDS011;2448;48.086;10.862;2024-03-22T10:58:25;4.23;;;2.30;;
4867;SDS011;2448;48.086;10.862;2024-03-22T11:00:54;2.43;;;2.23;;
4867;SDS011;2448;48.086;10.862;2024-03-22T11:03:20;3.87;;;2.63;;
4867;SDS011;2448;48.086;10.862;2024-03-22T11:05:57;2.60;;;2.50;;
4867;SDS011;2448;48.086;10.862;2024-03-22T11:08:29;3.07;;;2.87;;
4867;SDS011;2448;48.086;10.862;2024-03-22T11:10:58;2.57;;;2.37;;
4867;SDS011;2448;48.086;10.862;2024-03-22T11:13:35;2.60;;;2.40;;
4867;SDS011;2448;48.086;10.862;2024-03-22T11:16:00;3.03;;;2.47;;
4867;SDS011;2448;48.086;10.862;2024-03-22T11:18:26;3.07;;;2.67;;
4867;SDS011;2448;48.086;10.862;2024-03-22T11:20:51;2.67;;;2.07;;
4867;SDS011;2448;48.086;10.862;2024-03-22T11:23:16;3.03;;;2.43;;
4867;SDS011;2448;48.086;10.862;2024-03-22T11:25:42;2.77;;;2.50;;
4867;SDS011;2448;48.086;10.862;2024-03-22T11:28:07;3.30;;;2.30;;
4867;SDS011;2448;48.086;10.862;2024-03-22T11:30:33;3.87;;;2.70;;
4867;SDS011;2448;48.086;10.862;2024-03-22T11:33:00;2.03;;;1.93;;
4867;SDS011;2448;48.086;10.862;2024-03-22T11:35:26;2.90;;;2.70;;
4867;SDS011;2448;48.086;10.862;2024-03-22T11:37:51;4.00;;;3.00;;
4867;SDS011;2448;48.086;10.862;2024-03-22T11:40:17;4.07;;;2.67;;
4867;SDS011;2448;48.086;10.862;2024-03-22T11:42:44;2.70;;;2.50;;
4867;SDS011;2448;48.086;10.862;2024-03-22T11:45:11;4.27;;;3.03;;
4867;SDS011;2448;48.086;10.862;2024-03-22T11:47:38;4.13;;;2.83;;
4867;SDS011;2448;48.086;10.862;2024-03-22T11:50:03;4.60;;;2.63;;
4867;SDS011;2448;48.086;10.862;2024-03-22T11:52:30;2.70;;;2.50;;
4867;SDS011;2448;48.086;10.862;2024-03-22T11:54:55;2.53;;;2.33;;
4867;SDS011;2448;48.086;10.862;2024-03-22T11:57:21;2.20;;;2.10;;
4867;SDS011;2448;48.086;10.862;2024-03-22T11:59:47;2.37;;;2.20;;
4867;SDS011;2448;48.086;10.862;2024-03-22T12:02:13;7.00;;;3.00;;
4867;SDS011;2448;48.086;10.862;2024-03-22T12:04:42;5.00;;;2.93;;
4867;SDS011;2448;48.086;10.862;2024-03-22T12:07:10;3.43;;;2.80;;
4867;SDS011;2448;48.086;10.862;2024-03-22T12:09:36;2.70;;;2.50;;
4867;SDS011;2448;48.086;10.862;2024-03-22T12:12:02;5.47;;;3.00;;
4867;SDS011;2448;48.086;10.862;2024-03-22T12:14:28;2.27;;;2.10;;
4867;SDS011;2448;48.086;10.862;2024-03-22T12:16:54;2.67;;;2.50;;
4867;SDS011;2448;48.086;10.862;2024-03-22T12:19:19;3.20;;;2.43;;
4867;SDS011;2448;48.086;10.862;2024-03-22T12:21:44;2.53;;;2.33;;
4867;SDS011;2448;48.086;10.862;2024-03-22T12:24:10;3.03;;;2.70;;
4867;SDS011;2448;48.086;10.862;2024-03-22T12:26:35;2.50;;;2.30;;
4867;SDS011;2448;48.086;10.862;2024-03-22T12:29:00;6.13;;;2.57;;
4867;SDS011;2448;48.086;10.862;2024-03-22T12:31:26;3.10;;;2.57;;
4867;SDS011;2448;48.086;10.862;2024-03-22T12:33:51;3.00;;;2.70;;
4867;SDS011;2448;48.086;10.862;2024-03-22T12:36:16;6.93;;;2.93;;
4867;SDS011;2448;48.086;10.862;2024-03-22T12:38:42;2.60;;;2.37;;
4867;SDS011;2448;48.086;10.862;2024-03-22T12:41:07;2.77;;;2.50;;
4867;SDS011;2448;48.086;10.862;2024-03-22T12:43:32;5.87;;;2.90;;
4867;SDS011;2448;48.086;10.862;2024-03-22T12:45:58;3.13;;;2.83;;
4867;SDS011;2448;48.086;10.862;2024-03-22T12:48:23;4.90;;;3.30;;
4867;SDS011;2448;48.086;10.862;2024-03-22T12:50:48;4.40;;;2.77;;
4867;SDS011;2448;48.086;10.862;2024-03-22T12:53:14;3.17;;;2.93;;
4867;SDS011;2448;48.086;10.862;2024-03-22T12:55:39;6.10;;;2.70;;
4867;SDS011;2448;48.086;10.862;2024-03-22T12:58:05;2.83;;;2.63;;
4867;SDS011;2448;48.086;10.862;2024-03-22T13:00:30;2.63;;;2.43;;
4867;SDS011;2448;48.086;10.862;2024-03-22T13:02:55;16.17;;;2.70;;
4867;SDS011;2448;48.086;10.862;2024-03-22T13:05:21;2.30;;;2.10;;
4867;SDS011;2448;48.086;10.862;2024-03-22T13:07:46;2.37;;;2.17;;
4867;SDS011;2448;48.086;10.862;2024-03-22T13:10:12;2.60;;;2.37;;
4867;SDS011;2448;48.086;10.862;2024-03-22T13:12:37;3.33;;;2.20;;
4867;SDS011;2448;48.086;10.862;2024-03-22T13:15:03;2.57;;;1.87;;
4867;SDS011;2448;48.086;10.862;2024-03-22T13:17:29;1.67;;;1.57;;
4867;SDS011;2448;48.086;10.862;2024-03-22T13:19:54;1.90;;;1.70;;
4867;SDS011;2448;48.086;10.862;2024-03-22T13:22:20;1.73;;;1.63;;
4867;SDS011;2448;48.086;10.862;2024-03-22T13:24:45;1.73;;;1.63;;
4867;SDS011;2448;48.086;10.862;2024-03-22T13:27:11;2.20;;;1.80;;
4867;SDS011;2448;48.086;10.862;2024-03-22T13:29:38;3.17;;;1.80;;
4867;SDS011;2448;48.086;10.862;2024-03-22T13:32:03;1.90;;;1.60;;
4867;SDS011;2448;48.086;10.862;2024-03-22T13:34:29;2.73;;;1.70;;
4867;SDS011;2448;48.086;10.862;2024-03-22T13:36:55;1.77;;;1.67;;
4867;SDS011;2448;48.086;10.862;2024-03-22T13:39:20;1.80;;;1.70;;
4867;SDS011;2448;48.086;10.862;2024-03-22T13:41:46;2.23;;;1.93;;
4867;SDS011;2448;48.086;10.862;2024-03-22T13:44:12;2.37;;;2.00;;
4867;SDS011;2448;48.086;10.862;2024-03-22T13:46:37;1.97;;;1.87;;
4867;SDS011;2448;48.086;10.862;2024-03-22T13:49:12;1.60;;;1.50;;
4867;SDS011;2448;48.086;10.862;2024-03-22T13:51:38;1.90;;;1.77;;
4867;SDS011;2448;48.086;10.862;2024-03-22T13:54:03;1.30;;;1.30;;
4867;SDS011;2448;48.086;10.862;2024-03-22T13:56:29;1.20;;;1.20;;
4867;SDS011;2448;48.086;10.862;2024-03-22T13:58:54;2.00;;;1.23;;
4867;SDS011;2448;48.086;10.862;2024-03-22T14:01:19;1.53;;;1.40;;
4867;SDS011;2448;48.086;10.862;2024-03-22T14:03:45;2.00;;;1.60;;
4867;SDS011;2448;48.086;10.862;2024-03-22T14:06:10;1.50;;;1.40;;
4867;SDS011;2448;48.086;10.862;2024-03-22T14:08:36;2.83;;;1.47;;
4867;SDS011;2448;48.086;10.862;2024-03-22T14:11:01;1.53;;;1.43;;
4867;SDS011;2448;48.086;10.862;2024-03-22T14:13:26;2.27;;;1.67;;
4867;SDS011;2448;48.086;10.862;2024-03-22T14:15:52;1.60;;;1.50;;
4867;SDS011;2448;48.086;10.862;2024-03-22T14:18:18;1.10;;;1.00;;
4867;SDS011;2448;48.086;10.862;2024-03-22T14:20:43;1.60;;;1.50;;
4867;SDS011;2448;48.086;10.862;2024-03-22T14:23:08;1.33;;;1.30;;
4867;SDS011;2448;48.086;10.862;2024-03-22T14:25:34;1.30;;;1.20;;
4867;SDS011;2448;48.086;10.862;2024-03-22T14:27:59;2.20;;;1.27;;
4867;SDS011;2448;48.086;10.862;2024-03-22T14:30:25;1.10;;;1.10;;
4867;SDS011;2448;48.086;10.862;2024-03-22T14:32:50;1.30;;;1.20;;
4867;SDS011;2448;48.086;10.862;2024-03-22T14:35:16;1.23;;;1.13;;
4867;SDS011;2448;48.086;10.862;2024-03-22T14:37:41;1.10;;;1.10;;
4867;SDS011;2448;48.086;10.862;2024-03-22T14:40:07;1.30;;;1.30;;
4867;SDS011;2448;48.086;10.862;2024-03-22T14:42:35;1.93;;;1.30;;
4867;SDS011;2448;48.086;10.862;2024-03-22T14:45:01;1.27;;;1.27;;
4867;SDS011;2448;48.086;10.862;2024-03-22T14:47:27;1.07;;;1.07;;
4867;SDS011;2448;48.086;10.862;2024-03-22T14:49:53;1.60;;;1.50;;
4867;SDS011;2448;48.086;10.862;2024-03-22T14:52:19;0.93;;;0.93;;
4867;SDS011;2448;48.086;10.862;2024-03-22T14:54:46;0.80;;;0.80;;